Time;durP1;ratioP1;P1;durP2;ratioP2;P2;SDS_P1;SDS_P2;PMS_P1;PMS_P2;Temp;Humidity;BMP_temperature;BMP_pressure;BME280_temperature;BME280_humidity;BME280_pressure;Samples;Min_cycle;Max_cycle;Signal;HPM_P1;HPM_P2
2022/02/28 00:04:00;;;;;;;11.53;6.13;;;;;-0.40;102426.00;;;;10450854;28;20201;-81
2022/02/28 00:09:02;;;;;;;12.90;6.40;;;;;-0.40;102433.00;;;;10466822;28;20324;-81
2022/02/28 00:14:04;;;;;;;7.83;6.20;;;;;-0.50;102432.00;;;;10466273;28;20720;-82
2022/02/28 00:19:06;;;;;;;11.47;6.83;;;;;-0.60;102433.00;;;;10491234;28;20203;-81
2022/02/28 00:24:08;;;;;;;14.73;6.77;;;;;-0.60;102440.00;;;;10490661;28;20216;-82
2022/02/28 00:29:10;;;;;;;10.90;5.97;;;;;-0.60;102433.00;;;;10466325;28;20208;-82
2022/02/28 00:34:12;;;;;;;10.47;6.53;;;;;-0.60;102433.00;;;;10449743;28;20209;-81
2022/02/28 00:39:14;;;;;;;12.93;6.80;;;;;-0.60;102448.00;;;;10465774;28;20196;-81
2022/02/28 00:44:16;;;;;;;10.73;6.30;;;;;-0.70;102436.00;;;;10465425;28;20300;-81
2022/02/28 00:49:18;;;;;;;14.40;7.00;;;;;-0.60;102437.00;;;;10487881;28;20243;-81
2022/02/28 00:54:22;;;;;;;11.90;6.87;;;;;-0.60;102436.00;;;;10507949;28;20221;-81
2022/02/28 00:59:25;;;;;;;10.07;6.97;;;;;-0.60;102434.00;;;;10433705;28;20194;-81
2022/02/28 01:04:27;;;;;;;13.90;6.97;;;;;-0.70;102446.00;;;;10449387;28;20205;-82
2022/02/28 01:09:28;;;;;;;11.10;6.80;;;;;-0.80;102438.00;;;;10456283;28;20236;-81
2022/02/28 01:14:31;;;;;;;13.30;7.63;;;;;-0.90;102435.00;;;;10473123;28;20194;-81
2022/02/28 01:19:34;;;;;;;13.80;7.03;;;;;-0.90;102434.00;;;;10500948;28;20194;-81
2022/02/28 01:24:38;;;;;;;12.47;6.43;;;;;-0.70;102433.00;;;;10449144;28;20275;-81
2022/02/28 01:29:40;;;;;;;10.30;6.07;;;;;-0.50;102433.00;;;;10467516;28;20200;-81
2022/02/28 01:34:43;;;;;;;11.10;6.23;;;;;-0.30;102426.00;;;;10525466;28;20247;-81
2022/02/28 01:39:46;;;;;;;11.53;5.67;;;;;-0.20;102429.00;;;;10498222;28;20181;-81
2022/02/28 01:44:48;;;;;;;10.47;6.17;;;;;-0.20;102428.00;;;;10480735;28;20652;-81
2022/02/28 01:49:50;;;;;;;10.70;6.00;;;;;-0.30;102431.00;;;;10499150;28;20251;-80
2022/02/28 01:54:52;;;;;;;12.00;6.13;;;;;-0.30;102432.00;;;;10513158;28;20283;-81
2022/02/28 01:59:54;;;;;;;9.30;5.50;;;;;-0.40;102434.00;;;;10496889;28;20208;-81
2022/02/28 02:04:56;;;;;;;9.07;6.30;;;;;-0.50;102434.00;;;;10513488;28;20216;-81
2022/02/28 02:09:59;;;;;;;16.43;6.10;;;;;-0.50;102444.00;;;;10512476;28;20193;-81
2022/02/28 02:15:01;;;;;;;8.43;5.43;;;;;-0.60;102436.00;;;;10496197;28;20624;-81
2022/02/28 02:20:27;;;;;;;9.70;5.33;;;;;-0.60;102437.00;;;;10478859;28;20200;-81
2022/02/28 02:25:29;;;;;;;8.23;4.93;;;;;-0.60;102434.00;;;;10499844;28;20224;-81
2022/02/28 02:30:32;;;;;;;9.57;5.87;;;;;-0.70;102436.00;;;;10471059;28;20210;-81
2022/02/28 02:35:36;;;;;;;19.47;8.10;;;;;-0.90;102432.00;;;;10456897;28;20177;-81
2022/02/28 02:40:38;;;;;;;13.30;7.80;;;;;-0.90;102437.00;;;;10495202;28;20731;-80
2022/02/28 02:45:40;;;;;;;14.40;8.40;;;;;-0.90;102435.00;;;;10478531;28;20242;-80
2022/02/28 02:50:43;;;;;;;9.07;5.07;;;;;-1.00;102435.00;;;;10478106;28;20217;-81
2022/02/28 02:55:47;;;;;;;10.20;5.57;;;;;-1.20;102437.00;;;;10455889;28;20216;-81
2022/02/28 03:00:54;;;;;;;12.40;6.47;;;;;-1.40;102430.00;;;;10452376;28;20276;-81
2022/02/28 03:06:07;;;;;;;10.43;5.70;;;;;-1.50;102429.00;;;;10477857;28;20594;-81
2022/02/28 03:11:11;;;;;;;9.93;5.63;;;;;-1.50;102438.00;;;;10477843;28;20667;-81
2022/02/28 03:16:14;;;;;;;11.03;5.57;;;;;-1.60;102435.00;;;;10493571;28;20206;-81
2022/02/28 03:21:16;;;;;;;8.57;5.30;;;;;-1.60;102434.00;;;;10476569;28;20549;-81
2022/02/28 03:26:18;;;;;;;11.47;5.73;;;;;-1.60;102426.00;;;;10485941;28;20216;-81
2022/02/28 03:31:20;;;;;;;11.73;6.20;;;;;-1.60;102438.00;;;;10493499;28;20575;-81
2022/02/28 03:36:22;;;;;;;10.40;5.63;;;;;-1.80;102430.00;;;;10476415;28;20205;-81
2022/02/28 03:41:29;;;;;;;8.50;5.33;;;;;-1.90;102429.00;;;;10492865;28;20189;-81
2022/02/28 03:46:32;;;;;;;8.93;4.97;;;;;-1.90;102438.00;;;;10493327;28;20240;-81
2022/02/28 03:51:49;;;;;;;7.60;5.87;;;;;-2.00;102421.00;;;;10511572;27;20220;-81
2022/02/28 03:57:14;;;;;;;10.70;5.90;;;;;-2.10;102437.00;;;;10487198;28;20184;-81
2022/02/28 04:02:18;;;;;;;11.57;5.47;;;;;-2.10;102431.00;;;;10508245;28;20189;-80
2022/02/28 04:07:22;;;;;;;12.87;5.60;;;;;-2.10;102424.00;;;;10467122;28;20202;-81
2022/02/28 04:12:24;;;;;;;12.00;6.17;;;;;-2.10;102411.00;;;;10434842;28;20201;-81
2022/02/28 04:17:27;;;;;;;7.83;4.97;;;;;-2.00;102401.00;;;;10434916;28;20653;-81
2022/02/28 04:22:48;;;;;;;8.80;4.70;;;;;-1.90;102409.00;;;;10483616;28;20224;-81
2022/02/28 04:27:51;;;;;;;10.30;5.53;;;;;-1.70;102411.00;;;;10467861;28;20201;-81
2022/02/28 04:32:54;;;;;;;9.67;5.37;;;;;-1.70;102406.00;;;;10509008;28;20283;-81
2022/02/28 04:37:56;;;;;;;10.00;5.50;;;;;-1.60;102394.00;;;;10437203;28;20194;-81
2022/02/28 04:42:58;;;;;;;9.40;5.80;;;;;-1.60;102403.00;;;;10471551;28;20231;-81
2022/02/28 04:48:00;;;;;;;8.30;5.30;;;;;-1.60;102401.00;;;;10458066;28;20560;-81
2022/02/28 04:53:05;;;;;;;10.80;5.17;;;;;-1.80;102397.00;;;;10458159;28;20353;-81
2022/02/28 04:58:07;;;;;;;9.00;5.40;;;;;-2.00;102416.00;;;;10475592;28;20591;-81
2022/02/28 05:03:47;;;;;;;8.73;5.07;;;;;-2.10;102412.00;;;;10456498;28;20189;-82
2022/02/28 05:08:50;;;;;;;13.10;6.10;;;;;-2.20;102409.00;;;;10457995;28;20616;-81
2022/02/28 05:13:53;;;;;;;10.87;5.77;;;;;-2.20;102415.00;;;;10457326;28;20217;-81
2022/02/28 05:18:55;;;;;;;10.83;5.23;;;;;-2.30;102416.00;;;;10473892;28;20194;-81
2022/02/28 05:23:58;;;;;;;8.40;5.47;;;;;-2.40;102419.00;;;;10482564;28;20232;-80
2022/02/28 05:29:00;;;;;;;6.30;5.10;;;;;-2.50;102420.00;;;;10482247;28;20284;-80
2022/02/28 05:34:02;;;;;;;9.00;5.73;;;;;-2.60;102418.00;;;;10514540;28;20197;-80
2022/02/28 05:39:04;;;;;;;9.63;5.27;;;;;-2.60;102421.00;;;;10480877;28;20201;-81
2022/02/28 05:44:06;;;;;;;10.70;6.50;;;;;-2.60;102417.00;;;;10497095;28;20243;-80
2022/02/28 05:49:08;;;;;;;8.47;5.80;;;;;-2.60;102417.00;;;;10474401;28;20243;-81
2022/02/28 05:54:11;;;;;;;14.90;7.40;;;;;-2.50;102416.00;;;;10466662;28;20639;-80
2022/02/28 05:59:13;;;;;;;12.43;6.70;;;;;-2.10;102424.00;;;;10495977;28;20270;-80
2022/02/28 06:04:15;;;;;;;11.67;6.40;;;;;-1.80;102423.00;;;;10504281;28;20197;-79
2022/02/28 06:09:18;;;;;;;8.33;5.37;;;;;-1.70;102420.00;;;;10471487;28;20194;-80
2022/02/28 06:14:23;;;;;;;10.60;6.43;;;;;-1.70;102426.00;;;;10456053;28;20260;-80
2022/02/28 06:19:26;;;;;;;9.83;6.53;;;;;-1.80;102420.00;;;;10454608;28;20257;-80
2022/02/28 06:24:28;;;;;;;13.47;6.47;;;;;-1.80;102418.00;;;;10455691;28;20209;-80
2022/02/28 06:29:30;;;;;;;9.50;6.40;;;;;-1.70;102435.00;;;;10478871;28;20216;-80
2022/02/28 06:34:32;;;;;;;10.93;6.40;;;;;-1.70;102440.00;;;;10478556;28;20197;-79
2022/02/28 06:39:34;;;;;;;9.90;6.30;;;;;-1.60;102454.00;;;;10479723;28;20189;-80
2022/02/28 06:44:36;;;;;;;9.13;5.57;;;;;-1.70;102451.00;;;;10511376;28;20196;-80
2022/02/28 06:49:38;;;;;;;10.13;7.20;;;;;-1.70;102455.00;;;;10494305;28;20236;-80
2022/02/28 06:54:40;;;;;;;11.70;7.00;;;;;-1.60;102451.00;;;;10493874;28;20283;-80
2022/02/28 06:59:42;;;;;;;11.23;7.40;;;;;-1.40;102463.00;;;;10477385;28;20396;-80
2022/02/28 07:04:45;;;;;;;10.77;7.70;;;;;-1.30;102465.00;;;;10488342;28;20200;-80
2022/02/28 07:09:48;;;;;;;11.77;7.40;;;;;-1.10;102482.00;;;;10493661;28;20295;-80
2022/02/28 07:14:50;;;;;;;11.07;7.20;;;;;-0.90;102481.00;;;;10493365;28;20674;-80
2022/02/28 07:19:52;;;;;;;10.73;7.17;;;;;-0.60;102492.00;;;;10476497;28;20253;-80
2022/02/28 07:24:54;;;;;;;13.70;7.40;;;;;-0.30;102498.00;;;;10474766;28;20219;-80
2022/02/28 07:29:56;;;;;;;13.47;8.57;;;;;0.10;102495.00;;;;10477470;28;20201;-80
2022/02/28 07:34:57;;;;;;;10.97;7.67;;;;;0.70;102502.00;;;;10467309;28;20205;-80
2022/02/28 07:40:00;;;;;;;12.40;7.37;;;;;1.20;102497.00;;;;10466694;28;20182;-80
2022/02/28 07:45:03;;;;;;;10.93;7.27;;;;;1.60;102504.00;;;;10450601;28;20206;-81
2022/02/28 07:50:06;;;;;;;14.00;7.47;;;;;2.00;102502.00;;;;10467205;28;20220;-80
2022/02/28 07:55:09;;;;;;;9.27;7.20;;;;;2.30;102505.00;;;;10483371;28;20190;-80
2022/02/28 08:00:11;;;;;;;14.73;7.00;;;;;2.60;102512.00;;;;10471215;28;20197;-80
2022/02/28 08:05:14;;;;;;;10.37;6.03;;;;;2.90;102510.00;;;;10475516;28;20203;-80
2022/02/28 08:10:17;;;;;;;11.13;6.47;;;;;3.20;102508.00;;;;10472850;28;20225;-81
2022/02/28 08:15:19;;;;;;;10.47;6.30;;;;;3.50;102518.00;;;;10464074;28;20307;-80
2022/02/28 08:20:21;;;;;;;9.07;6.57;;;;;3.80;102522.00;;;;10467798;28;20279;-80
2022/02/28 08:25:23;;;;;;;12.10;5.90;;;;;4.10;102514.00;;;;10473545;28;20462;-81
2022/02/28 08:30:25;;;;;;;8.70;6.13;;;;;4.40;102519.00;;;;10476965;28;20572;-80
2022/02/28 08:35:27;;;;;;;8.23;5.80;;;;;5.00;102521.00;;;;10475356;28;20198;-81
2022/02/28 08:40:29;;;;;;;9.27;5.47;;;;;5.60;102522.00;;;;10479471;28;20216;-81
2022/02/28 08:45:35;;;;;;;9.33;5.73;;;;;6.10;102510.00;;;;10461711;28;20189;-80
2022/02/28 08:50:38;;;;;;;10.10;6.10;;;;;6.50;102520.00;;;;10463328;28;20221;-82
2022/02/28 08:55:40;;;;;;;9.60;5.57;;;;;6.80;102510.00;;;;10484146;28;20193;-80
2022/02/28 09:00:42;;;;;;;8.37;5.50;;;;;7.00;102509.00;;;;10472516;28;20193;-81
2022/02/28 09:05:44;;;;;;;9.97;5.90;;;;;7.30;102523.00;;;;10478485;28;20285;-81
2022/02/28 09:10:46;;;;;;;7.67;5.80;;;;;7.60;102521.00;;;;10500177;28;20296;-80
2022/02/28 09:15:48;;;;;;;7.77;5.63;;;;;8.00;102508.00;;;;10490442;28;20670;-80
2022/02/28 09:20:50;;;;;;;9.40;6.17;;;;;8.40;102494.00;;;;10448817;28;20649;-81
2022/02/28 09:25:52;;;;;;;11.80;5.90;;;;;8.70;102486.00;;;;10462676;28;20283;-81
2022/02/28 09:30:55;;;;;;;8.27;5.37;;;;;9.20;102486.00;;;;10488178;28;20216;-80
2022/02/28 09:35:58;;;;;;;7.33;5.20;;;;;9.40;102486.00;;;;10480239;28;20595;-80
2022/02/28 09:41:04;;;;;;;8.43;5.27;;;;;9.70;102486.00;;;;10512063;28;20189;-80
2022/02/28 09:46:09;;;;;;;8.93;5.63;;;;;9.90;102466.00;;;;10478523;28;20186;-80
2022/02/28 09:51:50;;;;;;;9.10;6.23;;;;;10.30;102457.00;;;;10492685;27;20226;-80
2022/02/28 09:56:53;;;;;;;11.07;5.87;;;;;10.70;102467.00;;;;10480490;28;20282;-80
2022/02/28 10:02:13;;;;;;;8.43;5.37;;;;;11.10;102462.00;;;;10481882;28;20198;-80
2022/02/28 10:07:22;;;;;;;9.87;5.93;;;;;11.40;102452.00;;;;10480140;28;20243;-80
2022/02/28 10:12:30;;;;;;;9.53;5.90;;;;;11.50;102444.00;;;;10482554;28;20208;-81
2022/02/28 10:17:47;;;;;;;6.57;5.23;;;;;11.70;102445.00;;;;10466790;28;20205;-81
2022/02/28 10:23:00;;;;;;;6.63;5.17;;;;;11.80;102433.00;;;;10474564;28;20237;-81
2022/02/28 10:28:15;;;;;;;7.47;5.83;;;;;12.00;102431.00;;;;10503729;28;20225;-80
2022/02/28 10:33:39;;;;;;;8.83;5.30;;;;;12.40;102441.00;;;;10494945;28;20287;-81
2022/02/28 10:39:03;;;;;;;7.13;5.33;;;;;12.60;102440.00;;;;10469770;28;20206;-81
2022/02/28 10:44:10;;;;;;;6.17;5.37;;;;;12.90;102437.00;;;;10467478;28;20229;-80
2022/02/28 10:49:19;;;;;;;7.47;5.47;;;;;13.30;102444.00;;;;10465029;28;20210;-81
2022/02/28 10:54:31;;;;;;;8.17;5.73;;;;;13.50;102448.00;;;;10466375;28;20217;-81
2022/02/28 10:59:42;;;;;;;9.37;5.87;;;;;13.70;102434.00;;;;10493448;28;20196;-81
2022/02/28 11:04:44;;;;;;;6.47;5.17;;;;;13.90;102439.00;;;;10495492;28;20254;-81
2022/02/28 11:09:47;;;;;;;10.63;5.43;;;;;14.10;102437.00;;;;10491783;28;20243;-80
2022/02/28 11:14:51;;;;;;;5.97;4.80;;;;;14.20;102438.00;;;;10474595;28;20217;-81
2022/02/28 11:19:53;;;;;;;7.23;5.80;;;;;14.40;102437.00;;;;10483465;28;20251;-81
2022/02/28 11:24:55;;;;;;;8.10;5.30;;;;;14.40;102434.00;;;;10467415;28;20221;-79
2022/02/28 11:30:02;;;;;;;6.80;5.40;;;;;14.50;102434.00;;;;10456861;28;20213;-81
2022/02/28 11:35:53;;;;;;;8.10;4.77;;;;;14.70;102436.00;;;;10475547;28;20296;-79
2022/02/28 11:41:05;;;;;;;6.73;4.77;;;;;14.80;102426.00;;;;10466671;28;20192;-80
2022/02/28 11:46:08;;;;;;;7.33;4.63;;;;;14.80;102430.00;;;;10479725;28;20204;-79
2022/02/28 11:51:33;;;;;;;5.73;4.80;;;;;15.00;102431.00;;;;10492285;28;20293;-78
2022/02/28 11:56:35;;;;;;;7.07;4.87;;;;;15.00;102429.00;;;;10447491;28;20208;-79
2022/02/28 12:01:39;;;;;;;5.67;4.33;;;;;15.00;102431.00;;;;10473658;28;20288;-79
2022/02/28 12:07:06;;;;;;;7.63;5.67;;;;;15.10;102427.00;;;;10473608;28;20200;-79
2022/02/28 12:12:31;;;;;;;5.90;5.18;;;;;15.40;102433.00;;;;10462342;28;20233;-81
2022/02/28 12:17:37;;;;;;;9.48;5.45;;;;;15.30;102420.00;;;;10471289;28;20254;-81
2022/02/28 12:22:51;;;;;;;8.07;5.72;;;;;15.30;102417.00;;;;10471139;28;20218;-81
2022/02/28 12:27:54;;;;;;;6.70;4.97;;;;;15.30;102416.00;;;;10482559;28;20200;-81
2022/02/28 12:32:56;;;;;;;7.70;5.47;;;;;15.30;102405.00;;;;10479546;28;20212;-81
2022/02/28 12:37:58;;;;;;;6.45;4.97;;;;;15.40;102398.00;;;;10490454;28;20558;-81
2022/02/28 12:43:02;;;;;;;9.13;5.63;;;;;15.60;102391.00;;;;10462831;28;20192;-81
2022/02/28 12:48:05;;;;;;;11.23;5.60;;;;;15.70;102386.00;;;;10468072;28;20272;-81
2022/02/28 12:53:07;;;;;;;6.75;5.53;;;;;15.70;102369.00;;;;10486568;28;20225;-81
2022/02/28 12:58:13;;;;;;;10.50;5.88;;;;;15.60;102354.00;;;;10460356;28;20207;-81
2022/02/28 13:03:15;;;;;;;10.15;5.35;;;;;15.50;102347.00;;;;10477942;28;20211;-81
2022/02/28 13:08:19;;;;;;;7.65;5.13;;;;;15.60;102359.00;;;;10474330;28;20206;-81
2022/02/28 13:13:24;;;;;;;8.75;5.95;;;;;15.80;102347.00;;;;10469772;28;20201;-81
2022/02/28 13:18:30;;;;;;;9.00;6.22;;;;;15.80;102339.00;;;;10481646;28;20698;-80
2022/02/28 13:23:34;;;;;;;6.63;5.60;;;;;15.50;102332.00;;;;10475410;28;20217;-81
2022/02/28 13:28:43;;;;;;;9.15;5.72;;;;;15.40;102334.00;;;;10483883;28;20292;-81
2022/02/28 13:33:50;;;;;;;7.15;5.40;;;;;15.30;102326.00;;;;10444350;28;20213;-81
2022/02/28 13:38:53;;;;;;;7.90;5.60;;;;;14.90;102322.00;;;;10495731;28;20248;-80
2022/02/28 13:43:58;;;;;;;6.83;5.83;;;;;14.90;102316.00;;;;10471937;28;20186;-81
2022/02/28 13:49:01;;;;;;;6.83;6.07;;;;;15.10;102318.00;;;;10475523;28;20602;-80
2022/02/28 13:54:11;;;;;;;7.73;5.93;;;;;15.30;102311.00;;;;10501255;28;20224;-80
2022/02/28 13:59:15;;;;;;;6.80;5.40;;;;;15.50;102301.00;;;;10510635;28;20731;-80
2022/02/28 14:04:17;;;;;;;9.27;5.67;;;;;16.40;102285.00;;;;10478165;28;20266;-80
2022/02/28 14:09:23;;;;;;;8.33;5.20;;;;;17.00;102251.00;;;;10511447;28;20545;-80
2022/02/28 14:14:25;;;;;;;8.50;6.47;;;;;18.40;102225.00;;;;10476372;28;20212;-81
2022/02/28 14:19:36;;;;;;;9.13;5.43;;;;;18.40;102205.00;;;;10482228;28;20335;-80
2022/02/28 14:24:50;;;;;;;8.93;4.83;;;;;19.60;102184.00;;;;10493525;28;20218;-80
2022/02/28 14:30:13;;;;;;;7.77;5.20;;;;;18.70;102211.00;;;;10495196;28;20228;-81
2022/02/28 14:35:28;;;;;;;7.30;5.13;;;;;17.50;102215.00;;;;10491711;28;20187;-80
2022/02/28 14:40:31;;;;;;;8.63;5.50;;;;;17.70;102193.00;;;;10522263;28;20246;-81
2022/02/28 14:45:33;;;;;;;6.60;5.60;;;;;19.40;102179.00;;;;10485198;28;20193;-80
2022/02/28 14:50:36;;;;;;;7.00;5.53;;;;;18.80;102202.00;;;;10504776;28;20209;-80
2022/02/28 14:55:38;;;;;;;6.50;5.03;;;;;19.00;102157.00;;;;10483696;28;20197;-79
2022/02/28 15:00:40;;;;;;;7.23;4.93;;;;;19.70;102142.00;;;;10478224;28;20755;-80
2022/02/28 15:05:43;;;;;;;6.20;5.13;;;;;18.80;102188.00;;;;10477181;28;20252;-81
2022/02/28 15:10:45;;;;;;;5.37;4.87;;;;;18.70;102189.00;;;;10485197;28;20671;-80
2022/02/28 15:15:49;;;;;;;8.00;5.23;;;;;19.60;102141.00;;;;10470091;28;20567;-80
2022/02/28 15:20:51;;;;;;;6.70;4.93;;;;;18.20;102196.00;;;;10466660;28;20209;-81
2022/02/28 15:25:54;;;;;;;8.37;5.50;;;;;17.00;102174.00;;;;10473597;28;20204;-81
2022/02/28 15:30:55;;;;;;;6.13;4.97;;;;;17.30;102179.00;;;;10470239;28;20213;-80
2022/02/28 15:35:57;;;;;;;6.50;5.23;;;;;17.90;102165.00;;;;10488880;28;20197;-80
2022/02/28 15:40:59;;;;;;;8.97;5.93;;;;;15.40;102224.00;;;;10495570;28;20256;-80
2022/02/28 15:46:01;;;;;;;9.73;6.33;;;;;13.80;102233.00;;;;10490414;28;20196;-80
2022/02/28 15:51:04;;;;;;;7.80;5.77;;;;;13.10;102215.00;;;;10477177;28;20308;-80
2022/02/28 15:56:07;;;;;;;8.80;6.10;;;;;12.60;102208.00;;;;10503306;28;20224;-80
2022/02/28 16:01:12;;;;;;;8.60;5.87;;;;;12.40;102211.00;;;;10482837;28;20220;-80
2022/02/28 16:06:14;;;;;;;9.43;5.67;;;;;12.30;102204.00;;;;10473774;28;20275;-81
2022/02/28 16:11:16;;;;;;;8.60;6.80;;;;;11.90;102200.00;;;;10463657;28;20220;-81
2022/02/28 16:16:18;;;;;;;11.77;6.53;;;;;11.50;102194.00;;;;10505348;28;20215;-80
2022/02/28 16:21:21;;;;;;;13.07;6.43;;;;;11.20;102191.00;;;;10530563;28;20210;-81
2022/02/28 16:26:22;;;;;;;8.53;5.67;;;;;11.00;102197.00;;;;10496084;28;20252;-81
2022/02/28 16:31:24;;;;;;;8.47;5.90;;;;;10.80;102194.00;;;;10482576;28;20201;-81
2022/02/28 16:36:28;;;;;;;9.63;6.43;;;;;10.60;102197.00;;;;10490743;28;20207;-80
2022/02/28 16:41:30;;;;;;;8.73;6.37;;;;;10.50;102201.00;;;;10478912;28;20525;-81
2022/02/28 16:46:32;;;;;;;10.23;6.03;;;;;10.30;102197.00;;;;10521316;28;20267;-80
2022/02/28 16:51:34;;;;;;;8.60;6.00;;;;;10.00;102202.00;;;;10512274;28;20679;-81
2022/02/28 16:56:36;;;;;;;8.13;6.17;;;;;9.80;102210.00;;;;10536882;28;20200;-81
2022/02/28 17:01:38;;;;;;;7.90;6.00;;;;;9.50;102212.00;;;;10519619;28;20188;-81
2022/02/28 17:06:40;;;;;;;10.47;6.60;;;;;9.20;102210.00;;;;10514717;28;20295;-81
2022/02/28 17:11:44;;;;;;;10.20;6.53;;;;;9.10;102218.00;;;;10487146;28;20211;-81
2022/02/28 17:16:46;;;;;;;10.43;6.43;;;;;8.80;102227.00;;;;10523568;28;20204;-81
2022/02/28 17:21:48;;;;;;;11.30;5.93;;;;;8.60;102228.00;;;;10499462;28;20205;-81
2022/02/28 17:26:50;;;;;;;10.17;6.57;;;;;8.30;102221.00;;;;10507711;28;20200;-80
2022/02/28 17:31:52;;;;;;;11.97;6.97;;;;;8.10;102219.00;;;;10515700;28;20277;-81
2022/02/28 17:36:54;;;;;;;11.40;6.20;;;;;7.80;102209.00;;;;10495582;28;20198;-82
2022/02/28 17:41:56;;;;;;;10.03;6.97;;;;;7.60;102218.00;;;;10464706;28;20193;-82
2022/02/28 17:46:58;;;;;;;11.20;6.93;;;;;7.60;102213.00;;;;10494920;28;20196;-82
2022/02/28 17:52:02;;;;;;;9.60;7.50;;;;;7.80;102219.00;;;;10492407;28;20237;-82
2022/02/28 17:57:04;;;;;;;13.43;8.07;;;;;7.80;102219.00;;;;10532532;28;20188;-82
2022/02/28 18:02:06;;;;;;;11.53;7.87;;;;;7.60;102219.00;;;;10494041;28;20225;-82
2022/02/28 18:07:09;;;;;;;15.53;8.17;;;;;7.40;102220.00;;;;10519312;28;20192;-81
2022/02/28 18:12:11;;;;;;;11.80;8.57;;;;;7.10;102224.00;;;;10462597;28;20205;-82
2022/02/28 18:17:14;;;;;;;11.97;8.77;;;;;7.10;102217.00;;;;10517981;28;20204;-82
2022/02/28 18:22:16;;;;;;;11.97;8.17;;;;;7.10;102219.00;;;;10515388;28;20217;-82
2022/02/28 18:27:18;;;;;;;16.00;9.40;;;;;7.10;102215.00;;;;10498982;28;20763;-82
2022/02/28 18:32:37;;;;;;;12.17;9.20;;;;;7.00;102205.00;;;;10494321;28;20209;-82
2022/02/28 18:37:42;;;;;;;19.77;9.07;;;;;6.90;102198.00;;;;10486117;28;20193;-82
2022/02/28 18:42:45;;;;;;;21.47;9.37;;;;;6.80;102209.00;;;;10527859;28;20192;-82
2022/02/28 18:47:52;;;;;;;15.40;10.07;;;;;6.70;102204.00;;;;10493828;28;20196;-82
2022/02/28 18:52:54;;;;;;;16.87;10.50;;;;;6.50;102198.00;;;;10485870;28;20248;-82
2022/02/28 18:57:56;;;;;;;20.43;11.80;;;;;6.10;102211.00;;;;10510051;28;20719;-82
2022/02/28 19:02:59;;;;;;;21.23;12.70;;;;;5.80;102217.00;;;;10459727;28;20702;-82
2022/02/28 19:08:03;;;;;;;21.20;13.27;;;;;5.60;102231.00;;;;10492276;28;20201;-82
2022/02/28 19:13:05;;;;;;;16.30;10.73;;;;;5.50;102228.00;;;;10496717;28;20292;-82
2022/02/28 19:18:07;;;;;;;19.80;12.83;;;;;5.50;102228.00;;;;10498258;28;20197;-83
2022/02/28 19:23:26;;;;;;;28.07;13.43;;;;;5.50;102234.00;;;;10479764;28;20630;-82
2022/02/28 19:28:28;;;;;;;20.47;11.17;;;;;5.30;102245.00;;;;10526166;28;20563;-82
2022/02/28 19:33:34;;;;;;;18.83;10.60;;;;;5.10;102251.00;;;;10523039;28;20889;-82
2022/02/28 19:38:36;;;;;;;15.73;10.67;;;;;5.10;102259.00;;;;10481492;28;20227;-82
2022/02/28 19:43:43;;;;;;;23.20;11.93;;;;;5.10;102260.00;;;;10501113;28;20763;-82
2022/02/28 19:48:50;;;;;;;20.03;13.10;;;;;5.20;102258.00;;;;10517249;28;20193;-82
2022/02/28 19:53:52;;;;;;;24.67;13.67;;;;;5.20;102253.00;;;;10504150;28;20572;-82
2022/02/28 19:59:14;;;;;;;20.57;13.00;;;;;5.10;102254.00;;;;10517958;28;20195;-83
2022/02/28 20:04:17;;;;;;;23.23;14.23;;;;;4.80;102263.00;;;;10498127;28;20226;-82
2022/02/28 20:09:19;;;;;;;21.17;14.10;;;;;4.50;102261.00;;;;10474816;28;20216;-82
2022/02/28 20:14:21;;;;;;;20.63;15.20;;;;;4.20;102267.00;;;;10465843;28;20229;-82
2022/02/28 20:19:26;;;;;;;23.60;15.13;;;;;3.90;102262.00;;;;10479978;28;20189;-82
2022/02/28 20:24:27;;;;;;;19.87;13.13;;;;;3.80;102260.00;;;;10487504;28;20248;-82
2022/02/28 20:29:31;;;;;;;18.13;12.00;;;;;3.90;102263.00;;;;10474413;28;20243;-81
2022/02/28 20:34:34;;;;;;;16.53;10.60;;;;;4.10;102264.00;;;;10493527;28;20206;-82
2022/02/28 20:39:36;;;;;;;18.70;11.57;;;;;4.30;102263.00;;;;10491694;28;20201;-82
2022/02/28 20:44:38;;;;;;;17.23;10.53;;;;;4.30;102260.00;;;;10490780;28;20193;-82
2022/02/28 20:49:40;;;;;;;23.57;12.33;;;;;4.10;102259.00;;;;10498834;28;20203;-82
2022/02/28 20:54:42;;;;;;;22.13;13.03;;;;;3.90;102267.00;;;;10474649;28;20216;-82
2022/02/28 20:59:44;;;;;;;18.60;12.57;;;;;3.80;102272.00;;;;10491550;28;20177;-83
2022/02/28 21:04:46;;;;;;;18.63;12.30;;;;;3.50;102273.00;;;;10511362;28;20197;-82
2022/02/28 21:09:50;;;;;;;19.53;12.77;;;;;3.20;102276.00;;;;10496753;28;20185;-82
2022/02/28 21:14:52;;;;;;;22.00;12.17;;;;;3.00;102271.00;;;;10497385;28;20209;-82
2022/02/28 21:19:54;;;;;;;19.07;12.03;;;;;2.80;102275.00;;;;10500097;28;20189;-83
2022/02/28 21:24:56;;;;;;;19.97;11.30;;;;;2.90;102262.00;;;;10499955;28;20615;-82
2022/02/28 21:29:58;;;;;;;27.80;15.17;;;;;3.20;102263.00;;;;10495530;28;20801;-82
2022/02/28 21:35:00;;;;;;;23.07;14.00;;;;;3.30;102262.00;;;;10506867;28;20235;-84
2022/02/28 21:40:03;;;;;;;23.90;12.30;;;;;3.30;102258.00;;;;10487515;28;20198;-82
2022/02/28 21:45:05;;;;;;;16.33;11.63;;;;;3.30;102263.00;;;;10475963;28;20188;-82
2022/02/28 21:50:11;;;;;;;16.70;11.07;;;;;3.20;102251.00;;;;10521949;28;20659;-82
2022/02/28 21:55:17;;;;;;;25.97;12.67;;;;;3.20;102262.00;;;;10502208;28;20204;-82
2022/02/28 22:00:19;;;;;;;16.17;10.57;;;;;3.20;102243.00;;;;10500948;28;20193;-82
2022/02/28 22:05:23;;;;;;;16.17;10.33;;;;;3.50;102252.00;;;;10523177;28;20195;-82
2022/02/28 22:10:25;;;;;;;16.20;9.80;;;;;3.70;102242.00;;;;10516144;28;20197;-83
2022/02/28 22:15:27;;;;;;;18.60;10.60;;;;;3.90;102236.00;;;;10483876;28;20212;-83
2022/02/28 22:20:30;;;;;;;15.93;10.37;;;;;3.70;102238.00;;;;10513572;28;20197;-82
2022/02/28 22:25:32;;;;;;;16.83;10.37;;;;;3.40;102234.00;;;;10479075;28;20701;-83
2022/02/28 22:30:34;;;;;;;18.67;10.03;;;;;3.20;102240.00;;;;10479793;28;20197;-82
2022/02/28 22:35:36;;;;;;;20.83;10.87;;;;;2.90;102247.00;;;;10498103;28;20208;-83
2022/02/28 22:40:38;;;;;;;18.40;10.83;;;;;2.70;102249.00;;;;10475868;28;20200;-83
2022/02/28 22:45:40;;;;;;;21.93;11.17;;;;;2.60;102247.00;;;;10495558;28;20679;-83
2022/02/28 22:50:43;;;;;;;20.43;11.07;;;;;2.70;102242.00;;;;10529891;28;20200;-82
2022/02/28 22:55:45;;;;;;;19.63;11.17;;;;;2.80;102234.00;;;;10536842;28;20216;-83
2022/02/28 23:00:47;;;;;;;19.60;11.67;;;;;2.90;102225.00;;;;10520132;28;20192;-83
2022/02/28 23:05:49;;;;;;;17.70;10.90;;;;;3.00;102225.00;;;;10510281;28;20223;-82
2022/02/28 23:21:33;;;;;;;17.17;11.67;;;;;2.70;102230.00;;;;10492273;28;20249;-82
2022/02/28 23:26:35;;;;;;;21.17;13.67;;;;;2.90;102227.00;;;;10467584;28;20567;-82
2022/02/28 23:31:37;;;;;;;22.13;12.13;;;;;3.00;102222.00;;;;10493555;28;20197;-82
2022/02/28 23:36:39;;;;;;;20.53;12.03;;;;;2.90;102220.00;;;;10492793;28;20254;-82
2022/02/28 23:41:42;;;;;;;17.70;12.00;;;;;2.70;102224.00;;;;10502799;28;20191;-81
2022/02/28 23:46:44;;;;;;;20.60;11.27;;;;;2.60;102227.00;;;;10520466;28;20286;-82
2022/02/28 23:51:46;;;;;;;18.83;12.30;;;;;2.50;102224.00;;;;10535617;28;20274;-82
2022/02/28 23:56:48;;;;;;;16.90;10.87;;;;;2.30;102215.00;;;;10509631;28;20201;-82
